Terminal Aerodrome Forecast
Issued by NWS

Home | Current Version | Previous Version | Text Only | Print | Product List | Glossary Off
Versions: 1 2 3 4 5 6 7 8 9 10 11 12 13 14 15 16

443
FTUS43 KICT 211124
TAFRSL
TAF
KRSL 211124Z 2112/2212 18013KT P6SM SKC
     FM211400 20017KT P6SM SKC
     FM212100 19017G26KT P6SM BKN250
     FM220000 19013KT P6SM BKN250
     FM220400 19010KT P6SM SCT250=

USA.gov is the U.S. government's official web portal to all federal, state and local government web resources and services.